Randolph, VA (23962)

6:48 PM EST on February 26, 2015 (GMT -0500)
The Cove | Change Station
CLOSE
Current Station
Personal Weather Station
Location: Clover, VA
Elevation: 449 ft
Nearby Weather Stations

Elev 449 ft 36.94 °N, 78.79 °W | Updated 11 minutes ago

Overcast
Overcast
32.5 °F
Feels Like 32 °F
N
0.0
Wind Variable Wind from North
Gusts 0.0 mph

Today
High -- | Low -- °F
--% Chance of Precip.
Yesterday
High -- | Low -- °F
Precip. -- in
6:50 AM 6:05 PM
Waxing Gibbous, 63% visible
Pressure 30.02 in
Visibility 10.0 miles
Clouds Mostly Cloudy 7000 ft
Windchill 32 °F
Dew Point 26 °F
Humidity 77%
Rainfall 0.26 in
Snow Depth Not available.
UV 0 out of 12
Pollen .70 out of 12
Air Quality Not available.
Flu Activity Not available.
METAR KFVX 262335Z AUTO 00000KT 10SM BKN070 01/M02 A3002 RMK AO2 T00051016

More Conditions Fewer Conditions

Pressure 30.02 in
Visibility 10.0 miles
Clouds Mostly Cloudy 7000 ft
Windchill 32 °F
Dew Point 26 °F
Humidity 77%
Rainfall 0.26 in
Snow Depth Not available.
UV 0 out of 12
Pollen .70 out of 12
Air Quality Not available.
Flu Activity Not available.
METAR KFVX 262335Z AUTO 00000KT 10SM BKN070 01/M02 A3002 RMK AO2 T00051016

More Conditions Fewer Conditions

10-Day Weather Forecast

Almanac

Astronomy

Feb. 26, 2015 Rise Set
Actual Time
Civil Twilight
Nautical Twilight
Astronomical Twilight
Moon
Length of Visible Light
Length of Day
Tomorrow will be .
, % of the Moon is Illuminated

Today's Extremes

State Highs State Lows

Community

WunderPhotos

Upload Photos

1,800,529 photos uploaded!

WunderBlogs® & News

Nearby

Air Quality

  Air Quality AQ Index Pollutant
Not available.

Snow Depth

Station Depth Elevation

Earthquake Activity

City Distance Mag. Time & Date
Minimum magnitude displayed is 2.5.

Coastal Water Temperatures

Place Temperature

Nearby Weather Stations

Special Statement
Statement as of 3:08 PM EST on February 26, 2015

... Black ice expected tonight...

Temperatures reached the mid to upper 30s across much of southeast
West Virginia and southwest Virginia today. This helped generate
some snow melt water. This water will refreeze tonight and produce
ice on surfaces such as roads... sidewalks... driveways and parking
lots. Expect temperatures to fall below freezing between 600 PM
and 900 PM. Caution should be exercised while driving or walking
as a wet looking surface will more likely be icy.


Ds


308 PM EST Thu Feb 26 2015

... Black ice expected tonight...

Temperatures reached the mid to upper 30s across much of southeast
West Virginia and southwest Virginia today. This helped generate
some snow melt water. This water will refreeze tonight and produce
ice on surfaces such as roads... sidewalks... driveways and parking
lots. Expect temperatures to fall below freezing between 600 PM
and 900 PM. Caution should be exercised while driving or walking
as a wet looking surface will more likely be icy.


Ds